sensor_id;sensor_type;location;lat;lon;timestamp;P1;durP1;ratioP1;P2;durP2;ratioP2
52508;SDS011;38420;53.150;6.370;2023-01-05T00:01:36;27.27;;;5.45;;
52508;SDS011;38420;53.150;6.370;2023-01-05T00:04:01;37.22;;;6.03;;
52508;SDS011;38420;53.150;6.370;2023-01-05T00:06:28;26.35;;;5.65;;
52508;SDS011;38420;53.150;6.370;2023-01-05T00:08:54;31.00;;;5.88;;
52508;SDS011;38420;53.150;6.370;2023-01-05T00:11:23;28.98;;;5.53;;
52508;SDS011;38420;53.150;6.370;2023-01-05T00:14:15;34.15;;;5.93;;
52508;SDS011;38420;53.150;6.370;2023-01-05T00:17:01;33.80;;;6.20;;
52508;SDS011;38420;53.150;6.370;2023-01-05T00:19:45;33.53;;;6.18;;
52508;SDS011;38420;53.150;6.370;2023-01-05T00:22:30;42.08;;;7.25;;
52508;SDS011;38420;53.150;6.370;2023-01-05T00:25:03;40.45;;;6.82;;
52508;SDS011;38420;53.150;6.370;2023-01-05T00:27:29;37.55;;;7.85;;
52508;SDS011;38420;53.150;6.370;2023-01-05T00:29:56;39.15;;;5.93;;
52508;SDS011;38420;53.150;6.370;2023-01-05T00:32:22;35.95;;;6.53;;
52508;SDS011;38420;53.150;6.370;2023-01-05T00:34:48;33.45;;;6.70;;
52508;SDS011;38420;53.150;6.370;2023-01-05T00:37:15;41.95;;;6.80;;
52508;SDS011;38420;53.150;6.370;2023-01-05T00:39:41;45.00;;;6.30;;
52508;SDS011;38420;53.150;6.370;2023-01-05T00:42:06;39.38;;;7.45;;
52508;SDS011;38420;53.150;6.370;2023-01-05T00:44:32;30.33;;;6.70;;
52508;SDS011;38420;53.150;6.370;2023-01-05T00:46:57;36.03;;;6.15;;
52508;SDS011;38420;53.150;6.370;2023-01-05T00:49:23;35.13;;;6.70;;
52508;SDS011;38420;53.150;6.370;2023-01-05T00:51:49;32.25;;;6.35;;
52508;SDS011;38420;53.150;6.370;2023-01-05T00:54:14;37.58;;;6.90;;
52508;SDS011;38420;53.150;6.370;2023-01-05T00:56:40;39.67;;;5.50;;
52508;SDS011;38420;53.150;6.370;2023-01-05T00:59:05;27.40;;;5.13;;
52508;SDS011;38420;53.150;6.370;2023-01-05T01:01:31;32.15;;;5.97;;
52508;SDS011;38420;53.150;6.370;2023-01-05T01:03:56;35.03;;;7.20;;
52508;SDS011;38420;53.150;6.370;2023-01-05T01:06:22;31.48;;;7.03;;
52508;SDS011;38420;53.150;6.370;2023-01-05T01:08:48;41.63;;;6.70;;
52508;SDS011;38420;53.150;6.370;2023-01-05T01:11:13;26.58;;;5.82;;
52508;SDS011;38420;53.150;6.370;2023-01-05T01:13:40;40.13;;;6.82;;
52508;SDS011;38420;53.150;6.370;2023-01-05T01:16:08;27.98;;;5.65;;
52508;SDS011;38420;53.150;6.370;2023-01-05T01:18:35;31.38;;;5.57;;
52508;SDS011;38420;53.150;6.370;2023-01-05T01:21:01;32.75;;;5.25;;
52508;SDS011;38420;53.150;6.370;2023-01-05T01:23:26;28.10;;;4.85;;
52508;SDS011;38420;53.150;6.370;2023-01-05T01:25:52;37.90;;;4.68;;
52508;SDS011;38420;53.150;6.370;2023-01-05T01:28:18;29.65;;;4.97;;
52508;SDS011;38420;53.150;6.370;2023-01-05T01:30:43;26.63;;;4.90;;
52508;SDS011;38420;53.150;6.370;2023-01-05T01:33:09;36.25;;;5.93;;
52508;SDS011;38420;53.150;6.370;2023-01-05T01:35:37;31.40;;;5.28;;
52508;SDS011;38420;53.150;6.370;2023-01-05T01:38:03;33.08;;;5.72;;
52508;SDS011;38420;53.150;6.370;2023-01-05T01:40:29;25.92;;;4.75;;
52508;SDS011;38420;53.150;6.370;2023-01-05T01:42:54;32.88;;;6.55;;
52508;SDS011;38420;53.150;6.370;2023-01-05T01:45:21;25.88;;;5.65;;
52508;SDS011;38420;53.150;6.370;2023-01-05T01:47:55;35.42;;;4.65;;
52508;SDS011;38420;53.150;6.370;2023-01-05T01:50:24;30.52;;;5.20;;
52508;SDS011;38420;53.150;6.370;2023-01-05T01:53:16;25.42;;;4.60;;
52508;SDS011;38420;53.150;6.370;2023-01-05T01:55:56;27.67;;;5.55;;
52508;SDS011;38420;53.150;6.370;2023-01-05T01:58:25;37.72;;;5.68;;
52508;SDS011;38420;53.150;6.370;2023-01-05T02:00:52;22.20;;;4.32;;
52508;SDS011;38420;53.150;6.370;2023-01-05T02:03:18;24.70;;;4.57;;
52508;SDS011;38420;53.150;6.370;2023-01-05T02:05:44;22.73;;;4.63;;
52508;SDS011;38420;53.150;6.370;2023-01-05T02:08:10;31.55;;;5.20;;
52508;SDS011;38420;53.150;6.370;2023-01-05T02:16:25;26.15;;;4.50;;
52508;SDS011;38420;53.150;6.370;2023-01-05T02:22:00;24.08;;;4.55;;
52508;SDS011;38420;53.150;6.370;2023-01-05T02:29:50;28.55;;;4.65;;
52508;SDS011;38420;53.150;6.370;2023-01-05T02:32:54;34.97;;;5.10;;
52508;SDS011;38420;53.150;6.370;2023-01-05T02:40:55;30.73;;;4.78;;
52508;SDS011;38420;53.150;6.370;2023-01-05T02:43:24;37.08;;;4.65;;
52508;SDS011;38420;53.150;6.370;2023-01-05T02:45:52;27.67;;;5.35;;
52508;SDS011;38420;53.150;6.370;2023-01-05T02:48:19;31.58;;;6.15;;
52508;SDS011;38420;53.150;6.370;2023-01-05T02:50:59;28.08;;;5.35;;
52508;SDS011;38420;53.150;6.370;2023-01-05T02:53:36;30.00;;;5.40;;
52508;SDS011;38420;53.150;6.370;2023-01-05T02:56:09;21.52;;;4.20;;
52508;SDS011;38420;53.150;6.370;2023-01-05T02:58:45;29.63;;;5.60;;
52508;SDS011;38420;53.150;6.370;2023-01-05T03:01:23;26.15;;;4.03;;
52508;SDS011;38420;53.150;6.370;2023-01-05T03:03:55;34.72;;;5.80;;
52508;SDS011;38420;53.150;6.370;2023-01-05T03:06:28;28.63;;;6.00;;
52508;SDS011;38420;53.150;6.370;2023-01-05T03:09:11;26.80;;;4.22;;
52508;SDS011;38420;53.150;6.370;2023-01-05T03:11:43;31.75;;;5.68;;
52508;SDS011;38420;53.150;6.370;2023-01-05T03:14:37;24.95;;;4.95;;
52508;SDS011;38420;53.150;6.370;2023-01-05T03:17:10;32.45;;;5.13;;
52508;SDS011;38420;53.150;6.370;2023-01-05T03:19:38;33.13;;;5.40;;
52508;SDS011;38420;53.150;6.370;2023-01-05T03:22:12;32.50;;;6.32;;
52508;SDS011;38420;53.150;6.370;2023-01-05T03:25:08;22.83;;;4.75;;
52508;SDS011;38420;53.150;6.370;2023-01-05T03:27:53;29.20;;;5.65;;
52508;SDS011;38420;53.150;6.370;2023-01-05T03:33:35;35.28;;;6.00;;
52508;SDS011;38420;53.150;6.370;2023-01-05T03:36:26;37.80;;;6.25;;
52508;SDS011;38420;53.150;6.370;2023-01-05T03:38:54;25.92;;;6.35;;
52508;SDS011;38420;53.150;6.370;2023-01-05T03:41:22;30.02;;;5.85;;
52508;SDS011;38420;53.150;6.370;2023-01-05T03:43:50;30.05;;;4.93;;
52508;SDS011;38420;53.150;6.370;2023-01-05T03:46:17;32.95;;;5.93;;
52508;SDS011;38420;53.150;6.370;2023-01-05T03:48:45;25.67;;;4.95;;
52508;SDS011;38420;53.150;6.370;2023-01-05T03:51:11;27.67;;;4.72;;
52508;SDS011;38420;53.150;6.370;2023-01-05T03:53:38;24.95;;;5.25;;
52508;SDS011;38420;53.150;6.370;2023-01-05T03:56:04;29.27;;;4.75;;
52508;SDS011;38420;53.150;6.370;2023-01-05T03:58:30;32.10;;;5.72;;
52508;SDS011;38420;53.150;6.370;2023-01-05T04:00:55;33.03;;;5.82;;
52508;SDS011;38420;53.150;6.370;2023-01-05T04:03:21;31.67;;;4.95;;
52508;SDS011;38420;53.150;6.370;2023-01-05T04:05:46;34.13;;;4.70;;
52508;SDS011;38420;53.150;6.370;2023-01-05T04:08:12;31.60;;;5.10;;
52508;SDS011;38420;53.150;6.370;2023-01-05T04:10:37;22.23;;;4.43;;
52508;SDS011;38420;53.150;6.370;2023-01-05T04:13:03;26.40;;;4.30;;
52508;SDS011;38420;53.150;6.370;2023-01-05T04:15:29;22.20;;;4.20;;
52508;SDS011;38420;53.150;6.370;2023-01-05T04:17:54;27.92;;;5.43;;
52508;SDS011;38420;53.150;6.370;2023-01-05T04:20:20;26.73;;;4.75;;
52508;SDS011;38420;53.150;6.370;2023-01-05T04:22:45;26.63;;;5.30;;
52508;SDS011;38420;53.150;6.370;2023-01-05T04:25:11;33.78;;;6.13;;
52508;SDS011;38420;53.150;6.370;2023-01-05T04:27:36;31.80;;;5.15;;
52508;SDS011;38420;53.150;6.370;2023-01-05T04:30:02;32.92;;;5.78;;
52508;SDS011;38420;53.150;6.370;2023-01-05T04:32:28;31.27;;;5.53;;
52508;SDS011;38420;53.150;6.370;2023-01-05T04:34:54;31.90;;;5.75;;
52508;SDS011;38420;53.150;6.370;2023-01-05T04:37:19;29.25;;;5.57;;
52508;SDS011;38420;53.150;6.370;2023-01-05T04:39:45;29.00;;;4.90;;
52508;SDS011;38420;53.150;6.370;2023-01-05T04:42:11;30.73;;;6.00;;
52508;SDS011;38420;53.150;6.370;2023-01-05T04:44:36;25.50;;;4.85;;
52508;SDS011;38420;53.150;6.370;2023-01-05T04:47:02;26.52;;;4.50;;
52508;SDS011;38420;53.150;6.370;2023-01-05T04:49:27;25.48;;;5.20;;
52508;SDS011;38420;53.150;6.370;2023-01-05T04:51:53;23.40;;;4.95;;
52508;SDS011;38420;53.150;6.370;2023-01-05T04:54:19;15.73;;;4.13;;
52508;SDS011;38420;53.150;6.370;2023-01-05T04:56:44;18.13;;;3.90;;
52508;SDS011;38420;53.150;6.370;2023-01-05T04:59:10;27.17;;;4.82;;
52508;SDS011;38420;53.150;6.370;2023-01-05T05:01:35;31.75;;;4.32;;
52508;SDS011;38420;53.150;6.370;2023-01-05T05:04:01;31.50;;;5.50;;
52508;SDS011;38420;53.150;6.370;2023-01-05T05:06:26;28.40;;;4.93;;
52508;SDS011;38420;53.150;6.370;2023-01-05T05:08:52;23.80;;;4.53;;
52508;SDS011;38420;53.150;6.370;2023-01-05T05:11:19;24.40;;;5.03;;
52508;SDS011;38420;53.150;6.370;2023-01-05T05:13:45;29.20;;;5.35;;
52508;SDS011;38420;53.150;6.370;2023-01-05T05:16:10;29.15;;;4.63;;
52508;SDS011;38420;53.150;6.370;2023-01-05T05:18:36;22.27;;;4.28;;
52508;SDS011;38420;53.150;6.370;2023-01-05T05:21:01;28.75;;;4.40;;
52508;SDS011;38420;53.150;6.370;2023-01-05T05:23:27;17.90;;;4.18;;
52508;SDS011;38420;53.150;6.370;2023-01-05T05:25:53;26.10;;;4.22;;
52508;SDS011;38420;53.150;6.370;2023-01-05T05:28:19;26.50;;;4.20;;
52508;SDS011;38420;53.150;6.370;2023-01-05T05:30:47;26.15;;;3.97;;
52508;SDS011;38420;53.150;6.370;2023-01-05T05:33:13;24.40;;;4.68;;
52508;SDS011;38420;53.150;6.370;2023-01-05T05:35:38;25.48;;;4.70;;
52508;SDS011;38420;53.150;6.370;2023-01-05T05:38:04;31.35;;;5.15;;
52508;SDS011;38420;53.150;6.370;2023-01-05T05:40:30;24.27;;;4.35;;
52508;SDS011;38420;53.150;6.370;2023-01-05T05:42:55;21.40;;;4.47;;
52508;SDS011;38420;53.150;6.370;2023-01-05T05:45:21;23.10;;;5.25;;
52508;SDS011;38420;53.150;6.370;2023-01-05T05:47:46;29.92;;;4.70;;
52508;SDS011;38420;53.150;6.370;2023-01-05T05:50:12;23.65;;;4.32;;
52508;SDS011;38420;53.150;6.370;2023-01-05T05:52:37;27.08;;;4.60;;
52508;SDS011;38420;53.150;6.370;2023-01-05T05:55:03;29.52;;;4.30;;
52508;SDS011;38420;53.150;6.370;2023-01-05T05:57:29;25.60;;;4.85;;
52508;SDS011;38420;53.150;6.370;2023-01-05T05:59:55;24.33;;;4.30;;
52508;SDS011;38420;53.150;6.370;2023-01-05T06:02:20;25.90;;;5.03;;
52508;SDS011;38420;53.150;6.370;2023-01-05T06:04:46;25.75;;;5.47;;
52508;SDS011;38420;53.150;6.370;2023-01-05T06:07:12;19.75;;;4.28;;
52508;SDS011;38420;53.150;6.370;2023-01-05T06:09:37;25.88;;;4.70;;
52508;SDS011;38420;53.150;6.370;2023-01-05T06:12:03;23.20;;;5.05;;
52508;SDS011;38420;53.150;6.370;2023-01-05T06:14:29;28.75;;;4.22;;
52508;SDS011;38420;53.150;6.370;2023-01-05T06:16:54;28.48;;;4.70;;
52508;SDS011;38420;53.150;6.370;2023-01-05T06:19:20;26.95;;;4.07;;
52508;SDS011;38420;53.150;6.370;2023-01-05T06:21:45;24.98;;;4.97;;
52508;SDS011;38420;53.150;6.370;2023-01-05T06:24:11;27.65;;;4.93;;
52508;SDS011;38420;53.150;6.370;2023-01-05T06:26:36;24.80;;;4.97;;
52508;SDS011;38420;53.150;6.370;2023-01-05T06:29:02;29.85;;;5.00;;
52508;SDS011;38420;53.150;6.370;2023-01-05T06:31:28;25.25;;;5.90;;
52508;SDS011;38420;53.150;6.370;2023-01-05T06:33:53;29.55;;;6.30;;
52508;SDS011;38420;53.150;6.370;2023-01-05T06:36:19;27.88;;;4.75;;
52508;SDS011;38420;53.150;6.370;2023-01-05T06:38:44;23.45;;;4.10;;
52508;SDS011;38420;53.150;6.370;2023-01-05T06:41:10;23.10;;;4.22;;
52508;SDS011;38420;53.150;6.370;2023-01-05T06:43:35;25.08;;;4.43;;
52508;SDS011;38420;53.150;6.370;2023-01-05T06:46:01;23.83;;;4.72;;
52508;SDS011;38420;53.150;6.370;2023-01-05T06:48:27;16.38;;;4.20;;
52508;SDS011;38420;53.150;6.370;2023-01-05T06:50:52;24.02;;;4.25;;
52508;SDS011;38420;53.150;6.370;2023-01-05T06:53:18;22.35;;;5.30;;
52508;SDS011;38420;53.150;6.370;2023-01-05T06:55:44;19.92;;;3.83;;
52508;SDS011;38420;53.150;6.370;2023-01-05T06:58:09;23.77;;;4.68;;
52508;SDS011;38420;53.150;6.370;2023-01-05T07:00:35;24.23;;;4.07;;
52508;SDS011;38420;53.150;6.370;2023-01-05T07:03:01;23.23;;;4.70;;
52508;SDS011;38420;53.150;6.370;2023-01-05T07:05:27;27.08;;;4.32;;
52508;SDS011;38420;53.150;6.370;2023-01-05T07:07:52;26.17;;;4.80;;
52508;SDS011;38420;53.150;6.370;2023-01-05T07:10:18;20.33;;;4.10;;
52508;SDS011;38420;53.150;6.370;2023-01-05T07:12:44;22.77;;;4.68;;
52508;SDS011;38420;53.150;6.370;2023-01-05T07:15:09;24.33;;;4.45;;
52508;SDS011;38420;53.150;6.370;2023-01-05T07:17:35;29.20;;;5.25;;
52508;SDS011;38420;53.150;6.370;2023-01-05T07:20:01;30.80;;;5.03;;
52508;SDS011;38420;53.150;6.370;2023-01-05T07:22:28;29.05;;;5.05;;
52508;SDS011;38420;53.150;6.370;2023-01-05T07:24:55;25.95;;;5.43;;
52508;SDS011;38420;53.150;6.370;2023-01-05T07:27:23;31.42;;;4.53;;
52508;SDS011;38420;53.150;6.370;2023-01-05T07:29:48;19.70;;;4.47;;
52508;SDS011;38420;53.150;6.370;2023-01-05T07:32:14;25.10;;;4.63;;
52508;SDS011;38420;53.150;6.370;2023-01-05T07:34:39;22.85;;;4.30;;
52508;SDS011;38420;53.150;6.370;2023-01-05T07:37:05;27.02;;;5.03;;
52508;SDS011;38420;53.150;6.370;2023-01-05T07:39:31;20.63;;;5.03;;
52508;SDS011;38420;53.150;6.370;2023-01-05T07:41:56;26.73;;;5.43;;
52508;SDS011;38420;53.150;6.370;2023-01-05T07:44:22;31.00;;;4.60;;
52508;SDS011;38420;53.150;6.370;2023-01-05T07:46:47;30.00;;;4.80;;
52508;SDS011;38420;53.150;6.370;2023-01-05T07:49:13;27.42;;;4.00;;
52508;SDS011;38420;53.150;6.370;2023-01-05T07:51:39;28.08;;;5.35;;
52508;SDS011;38420;53.150;6.370;2023-01-05T07:54:05;30.98;;;5.68;;
52508;SDS011;38420;53.150;6.370;2023-01-05T07:56:31;23.27;;;4.85;;
52508;SDS011;38420;53.150;6.370;2023-01-05T07:58:57;26.17;;;5.13;;
52508;SDS011;38420;53.150;6.370;2023-01-05T08:01:23;25.38;;;4.47;;
52508;SDS011;38420;53.150;6.370;2023-01-05T08:03:48;25.08;;;5.15;;
52508;SDS011;38420;53.150;6.370;2023-01-05T08:06:14;23.73;;;5.10;;
52508;SDS011;38420;53.150;6.370;2023-01-05T08:08:42;25.25;;;4.85;;
52508;SDS011;38420;53.150;6.370;2023-01-05T08:11:09;25.02;;;4.93;;
52508;SDS011;38420;53.150;6.370;2023-01-05T08:13:35;23.33;;;5.00;;
52508;SDS011;38420;53.150;6.370;2023-01-05T08:16:19;27.58;;;4.55;;
52508;SDS011;38420;53.150;6.370;2023-01-05T08:18:45;30.05;;;6.20;;
52508;SDS011;38420;53.150;6.370;2023-01-05T08:21:11;25.45;;;5.47;;
52508;SDS011;38420;53.150;6.370;2023-01-05T08:23:37;23.50;;;4.45;;
52508;SDS011;38420;53.150;6.370;2023-01-05T08:26:04;24.58;;;5.30;;
52508;SDS011;38420;53.150;6.370;2023-01-05T08:28:31;27.38;;;4.00;;
52508;SDS011;38420;53.150;6.370;2023-01-05T08:31:05;22.35;;;4.68;;
52508;SDS011;38420;53.150;6.370;2023-01-05T08:33:33;26.60;;;5.15;;
52508;SDS011;38420;53.150;6.370;2023-01-05T08:35:59;21.98;;;4.25;;
52508;SDS011;38420;53.150;6.370;2023-01-05T08:38:24;19.25;;;4.07;;
52508;SDS011;38420;53.150;6.370;2023-01-05T08:40:50;23.77;;;4.28;;
52508;SDS011;38420;53.150;6.370;2023-01-05T08:43:16;23.90;;;4.15;;
52508;SDS011;38420;53.150;6.370;2023-01-05T08:45:42;19.83;;;4.53;;
52508;SDS011;38420;53.150;6.370;2023-01-05T08:50:39;25.20;;;5.00;;
52508;SDS011;38420;53.150;6.370;2023-01-05T08:53:04;25.90;;;4.90;;
52508;SDS011;38420;53.150;6.370;2023-01-05T08:55:30;16.63;;;4.00;;
52508;SDS011;38420;53.150;6.370;2023-01-05T08:57:55;24.30;;;3.90;;
52508;SDS011;38420;53.150;6.370;2023-01-05T09:00:21;23.45;;;4.45;;
52508;SDS011;38420;53.150;6.370;2023-01-05T09:02:47;24.15;;;3.72;;
52508;SDS011;38420;53.150;6.370;2023-01-05T09:05:13;23.38;;;3.95;;
52508;SDS011;38420;53.150;6.370;2023-01-05T09:07:39;21.75;;;3.97;;
52508;SDS011;38420;53.150;6.370;2023-01-05T09:10:05;24.92;;;4.75;;
52508;SDS011;38420;53.150;6.370;2023-01-05T09:12:35;22.50;;;5.15;;
52508;SDS011;38420;53.150;6.370;2023-01-05T09:15:01;30.25;;;4.55;;
52508;SDS011;38420;53.150;6.370;2023-01-05T09:17:27;26.00;;;4.57;;
52508;SDS011;38420;53.150;6.370;2023-01-05T09:19:52;25.08;;;4.18;;
52508;SDS011;38420;53.150;6.370;2023-01-05T09:22:18;22.50;;;4.45;;
52508;SDS011;38420;53.150;6.370;2023-01-05T09:24:44;24.27;;;4.00;;
52508;SDS011;38420;53.150;6.370;2023-01-05T09:27:10;20.50;;;3.67;;
52508;SDS011;38420;53.150;6.370;2023-01-05T09:29:36;21.38;;;3.60;;
52508;SDS011;38420;53.150;6.370;2023-01-05T09:32:01;26.60;;;4.70;;
52508;SDS011;38420;53.150;6.370;2023-01-05T09:34:27;22.80;;;4.03;;
52508;SDS011;38420;53.150;6.370;2023-01-05T09:36:53;23.05;;;4.32;;
52508;SDS011;38420;53.150;6.370;2023-01-05T09:39:18;14.50;;;2.92;;
52508;SDS011;38420;53.150;6.370;2023-01-05T09:41:48;19.63;;;4.47;;
52508;SDS011;38420;53.150;6.370;2023-01-05T09:46:46;17.70;;;3.58;;
52508;SDS011;38420;53.150;6.370;2023-01-05T09:49:14;22.38;;;4.00;;
52508;SDS011;38420;53.150;6.370;2023-01-05T09:51:42;25.33;;;4.75;;
52508;SDS011;38420;53.150;6.370;2023-01-05T09:54:15;23.83;;;5.05;;
52508;SDS011;38420;53.150;6.370;2023-01-05T09:56:43;25.25;;;4.43;;
52508;SDS011;38420;53.150;6.370;2023-01-05T09:59:13;23.95;;;3.80;;
52508;SDS011;38420;53.150;6.370;2023-01-05T10:01:43;19.25;;;3.65;;
52508;SDS011;38420;53.150;6.370;2023-01-05T10:04:12;26.77;;;4.40;;
52508;SDS011;38420;53.150;6.370;2023-01-05T10:06:45;29.38;;;3.50;;
52508;SDS011;38420;53.150;6.370;2023-01-05T10:09:15;21.50;;;3.70;;
52508;SDS011;38420;53.150;6.370;2023-01-05T10:14:55;18.67;;;3.88;;
52508;SDS011;38420;53.150;6.370;2023-01-05T10:17:26;14.32;;;3.13;;
52508;SDS011;38420;53.150;6.370;2023-01-05T10:19:56;23.98;;;4.03;;
52508;SDS011;38420;53.150;6.370;2023-01-05T10:22:30;18.20;;;3.83;;
52508;SDS011;38420;53.150;6.370;2023-01-05T10:33:15;20.65;;;5.03;;
52508;SDS011;38420;53.150;6.370;2023-01-05T10:38:41;16.17;;;3.50;;
52508;SDS011;38420;53.150;6.370;2023-01-05T10:47:07;23.92;;;3.35;;
52508;SDS011;38420;53.150;6.370;2023-01-05T10:49:34;19.30;;;4.40;;
52508;SDS011;38420;53.150;6.370;2023-01-05T10:52:01;20.83;;;4.10;;
52508;SDS011;38420;53.150;6.370;2023-01-05T10:54:43;22.33;;;4.10;;
52508;SDS011;38420;53.150;6.370;2023-01-05T11:02:41;27.98;;;4.95;;
52508;SDS011;38420;53.150;6.370;2023-01-05T11:05:22;22.85;;;5.07;;
52508;SDS011;38420;53.150;6.370;2023-01-05T11:08:01;26.23;;;4.43;;
52508;SDS011;38420;53.150;6.370;2023-01-05T11:10:32;31.45;;;4.70;;
52508;SDS011;38420;53.150;6.370;2023-01-05T11:13:21;27.42;;;5.53;;
52508;SDS011;38420;53.150;6.370;2023-01-05T11:18:41;19.63;;;3.50;;
52508;SDS011;38420;53.150;6.370;2023-01-05T11:21:24;15.50;;;3.35;;
52508;SDS011;38420;53.150;6.370;2023-01-05T11:23:55;18.27;;;2.97;;
52508;SDS011;38420;53.150;6.370;2023-01-05T11:26:29;12.95;;;2.88;;
52508;SDS011;38420;53.150;6.370;2023-01-05T11:39:41;20.45;;;3.13;;
52508;SDS011;38420;53.150;6.370;2023-01-05T11:42:17;20.17;;;3.60;;
52508;SDS011;38420;53.150;6.370;2023-01-05T11:52:35;17.27;;;3.60;;
52508;SDS011;38420;53.150;6.370;2023-01-05T12:03:25;14.18;;;2.38;;
52508;SDS011;38420;53.150;6.370;2023-01-05T12:09:19;19.10;;;2.83;;
52508;SDS011;38420;53.150;6.370;2023-01-05T12:16:54;17.55;;;3.30;;
52508;SDS011;38420;53.150;6.370;2023-01-05T12:22:35;18.52;;;4.47;;
52508;SDS011;38420;53.150;6.370;2023-01-05T12:28:13;23.48;;;3.22;;
52508;SDS011;38420;53.150;6.370;2023-01-05T12:42:17;20.67;;;4.32;;
52508;SDS011;38420;53.150;6.370;2023-01-05T12:44:51;22.83;;;4.50;;
52508;SDS011;38420;53.150;6.370;2023-01-05T12:52:47;16.65;;;4.15;;
52508;SDS011;38420;53.150;6.370;2023-01-05T12:57:59;17.85;;;3.83;;
52508;SDS011;38420;53.150;6.370;2023-01-05T13:00:30;16.65;;;3.80;;
52508;SDS011;38420;53.150;6.370;2023-01-05T13:05:33;20.42;;;3.60;;
52508;SDS011;38420;53.150;6.370;2023-01-05T13:08:23;20.63;;;4.47;;
52508;SDS011;38420;53.150;6.370;2023-01-05T13:10:59;24.67;;;4.07;;
52508;SDS011;38420;53.150;6.370;2023-01-05T13:13:47;14.07;;;3.80;;
52508;SDS011;38420;53.150;6.370;2023-01-05T13:19:17;16.42;;;3.47;;
52508;SDS011;38420;53.150;6.370;2023-01-05T13:21:45;20.02;;;4.07;;
52508;SDS011;38420;53.150;6.370;2023-01-05T13:24:13;18.83;;;3.67;;
52508;SDS011;38420;53.150;6.370;2023-01-05T13:26:52;19.70;;;3.45;;
52508;SDS011;38420;53.150;6.370;2023-01-05T13:29:26;25.88;;;5.10;;
52508;SDS011;38420;53.150;6.370;2023-01-05T13:37:43;21.10;;;4.10;;
52508;SDS011;38420;53.150;6.370;2023-01-05T13:40:20;21.48;;;4.40;;
52508;SDS011;38420;53.150;6.370;2023-01-05T13:53:51;24.80;;;4.07;;
52508;SDS011;38420;53.150;6.370;2023-01-05T13:58:45;20.75;;;3.70;;
52508;SDS011;38420;53.150;6.370;2023-01-05T14:01:17;23.45;;;4.10;;
52508;SDS011;38420;53.150;6.370;2023-01-05T14:06:25;19.03;;;3.97;;
52508;SDS011;38420;53.150;6.370;2023-01-05T14:08:55;23.45;;;5.13;;
52508;SDS011;38420;53.150;6.370;2023-01-05T14:11:22;31.90;;;5.40;;
52508;SDS011;38420;53.150;6.370;2023-01-05T14:13:51;21.75;;;4.78;;
52508;SDS011;38420;53.150;6.370;2023-01-05T14:19:12;27.73;;;5.95;;
52508;SDS011;38420;53.150;6.370;2023-01-05T14:22:16;26.00;;;4.80;;
52508;SDS011;38420;53.150;6.370;2023-01-05T14:24:46;28.80;;;4.65;;
52508;SDS011;38420;53.150;6.370;2023-01-05T14:27:13;27.10;;;4.65;;
52508;SDS011;38420;53.150;6.370;2023-01-05T14:32:11;20.10;;;4.32;;
52508;SDS011;38420;53.150;6.370;2023-01-05T14:34:44;32.97;;;5.10;;
52508;SDS011;38420;53.150;6.370;2023-01-05T14:37:26;27.15;;;5.45;;
52508;SDS011;38420;53.150;6.370;2023-01-05T14:39:59;22.00;;;5.00;;
52508;SDS011;38420;53.150;6.370;2023-01-05T14:42:31;15.48;;;3.72;;
52508;SDS011;38420;53.150;6.370;2023-01-05T14:45:03;29.40;;;6.45;;
52508;SDS011;38420;53.150;6.370;2023-01-05T14:47:38;22.70;;;6.07;;
52508;SDS011;38420;53.150;6.370;2023-01-05T14:50:28;26.08;;;5.75;;
52508;SDS011;38420;53.150;6.370;2023-01-05T14:55:38;24.17;;;4.05;;
52508;SDS011;38420;53.150;6.370;2023-01-05T15:01:01;24.60;;;4.63;;
52508;SDS011;38420;53.150;6.370;2023-01-05T15:21:15;26.38;;;5.35;;
52508;SDS011;38420;53.150;6.370;2023-01-05T15:34:46;34.55;;;5.43;;
52508;SDS011;38420;53.150;6.370;2023-01-05T15:37:19;28.77;;;4.53;;
52508;SDS011;38420;53.150;6.370;2023-01-05T15:39:55;23.35;;;4.20;;
52508;SDS011;38420;53.150;6.370;2023-01-05T15:42:37;31.35;;;4.95;;
52508;SDS011;38420;53.150;6.370;2023-01-05T15:45:06;27.35;;;5.60;;
52508;SDS011;38420;53.150;6.370;2023-01-05T15:47:39;29.65;;;7.20;;
52508;SDS011;38420;53.150;6.370;2023-01-05T15:50:05;32.38;;;6.15;;
52508;SDS011;38420;53.150;6.370;2023-01-05T15:52:39;34.88;;;7.10;;
52508;SDS011;38420;53.150;6.370;2023-01-05T15:57:38;33.47;;;6.80;;
52508;SDS011;38420;53.150;6.370;2023-01-05T16:00:14;27.25;;;6.22;;
52508;SDS011;38420;53.150;6.370;2023-01-05T16:02:41;30.15;;;6.72;;
52508;SDS011;38420;53.150;6.370;2023-01-05T16:05:11;35.83;;;6.22;;
52508;SDS011;38420;53.150;6.370;2023-01-05T16:10:40;29.67;;;7.13;;
52508;SDS011;38420;53.150;6.370;2023-01-05T16:15:36;31.20;;;5.90;;
52508;SDS011;38420;53.150;6.370;2023-01-05T16:18:03;33.13;;;7.38;;
52508;SDS011;38420;53.150;6.370;2023-01-05T16:20:31;37.30;;;6.82;;
52508;SDS011;38420;53.150;6.370;2023-01-05T16:25:31;32.63;;;6.13;;
52508;SDS011;38420;53.150;6.370;2023-01-05T16:28:08;32.13;;;7.00;;
52508;SDS011;38420;53.150;6.370;2023-01-05T16:30:41;33.65;;;7.00;;
52508;SDS011;38420;53.150;6.370;2023-01-05T16:40:37;40.53;;;9.20;;
52508;SDS011;38420;53.150;6.370;2023-01-05T16:43:15;27.25;;;7.97;;
52508;SDS011;38420;53.150;6.370;2023-01-05T16:45:46;37.53;;;7.25;;
52508;SDS011;38420;53.150;6.370;2023-01-05T16:48:42;29.00;;;6.20;;
52508;SDS011;38420;53.150;6.370;2023-01-05T16:51:17;35.30;;;7.03;;
52508;SDS011;38420;53.150;6.370;2023-01-05T16:58:46;35.75;;;7.43;;
52508;SDS011;38420;53.150;6.370;2023-01-05T17:03:39;29.67;;;6.38;;
52508;SDS011;38420;53.150;6.370;2023-01-05T17:06:13;35.25;;;7.43;;
52508;SDS011;38420;53.150;6.370;2023-01-05T17:08:42;34.85;;;7.68;;
52508;SDS011;38420;53.150;6.370;2023-01-05T17:11:08;35.80;;;7.40;;
52508;SDS011;38420;53.150;6.370;2023-01-05T17:13:39;36.13;;;6.50;;
52508;SDS011;38420;53.150;6.370;2023-01-05T17:16:09;34.78;;;7.82;;
52508;SDS011;38420;53.150;6.370;2023-01-05T17:18:36;39.33;;;8.95;;
52508;SDS011;38420;53.150;6.370;2023-01-05T17:21:02;35.80;;;9.20;;
52508;SDS011;38420;53.150;6.370;2023-01-05T17:23:34;30.65;;;9.65;;
52508;SDS011;38420;53.150;6.370;2023-01-05T17:26:07;36.55;;;8.50;;
52508;SDS011;38420;53.150;6.370;2023-01-05T17:28:35;42.05;;;10.68;;
52508;SDS011;38420;53.150;6.370;2023-01-05T17:31:01;34.90;;;8.93;;
52508;SDS011;38420;53.150;6.370;2023-01-05T17:33:27;34.88;;;7.57;;
52508;SDS011;38420;53.150;6.370;2023-01-05T17:35:52;34.20;;;7.30;;
52508;SDS011;38420;53.150;6.370;2023-01-05T17:38:19;47.75;;;8.00;;
52508;SDS011;38420;53.150;6.370;2023-01-05T17:40:44;41.85;;;8.32;;
52508;SDS011;38420;53.150;6.370;2023-01-05T17:43:10;37.00;;;8.63;;
52508;SDS011;38420;53.150;6.370;2023-01-05T17:45:37;37.25;;;8.35;;
52508;SDS011;38420;53.150;6.370;2023-01-05T17:48:04;39.72;;;8.73;;
52508;SDS011;38420;53.150;6.370;2023-01-05T17:50:31;34.47;;;7.88;;
52508;SDS011;38420;53.150;6.370;2023-01-05T17:52:57;39.42;;;7.18;;
52508;SDS011;38420;53.150;6.370;2023-01-05T17:55:24;36.78;;;7.20;;
52508;SDS011;38420;53.150;6.370;2023-01-05T17:57:50;42.75;;;9.63;;
52508;SDS011;38420;53.150;6.370;2023-01-05T18:00:17;46.17;;;9.65;;
52508;SDS011;38420;53.150;6.370;2023-01-05T18:02:44;33.42;;;8.60;;
52508;SDS011;38420;53.150;6.370;2023-01-05T18:05:10;44.63;;;9.27;;
52508;SDS011;38420;53.150;6.370;2023-01-05T18:07:37;34.05;;;10.38;;
52508;SDS011;38420;53.150;6.370;2023-01-05T18:10:04;48.63;;;9.50;;
52508;SDS011;38420;53.150;6.370;2023-01-05T18:12:31;40.83;;;8.88;;
52508;SDS011;38420;53.150;6.370;2023-01-05T18:14:57;52.78;;;9.38;;